Česky Dansk Deutsch English Español Suomi Français Magyar Italiano Nederlands norsk Polski Português svenska Türkçe

 

Het Weer

Wick (Groot Britanië)

19:50, 1 augustus 2016 (GMT)

NWNNE
WE
SWSSE
Home            
Wick Kirkwall Airport Lossiemouth Tain Range Kinloss Inverness / Dalcross Aberdeen / Dyce Sumburgh Cape Stornoway Dundee / Riverside Perth / Scone Leuchars Scatsa / Shetland Island Benbecula Edinburgh Airport Unst Island Glasgow Airport Tiree Frigg Prestwick Airport Boulmer Islay Campbeltown

Om een weerknop op uw website of weblog te plaatsen, copieer onderstaande code en plak die in uw pagina. In het eerste vakje staat HTML-code, in het tweede vakje UBB-code.


Add to Google

Details

Wind speed:2 bf, 5 kn, 2.6 m/s, 5.8 miles/h, 9.3 km/h
Wind direction:WNW, 300°
Visibility:Greater than 10000 m, 10 km, 32800 ft, 6.2 miles
Temperature:11°C, 52°F
Dew-point:7°C, 45°F
Atmospheric pressure:1013 hPa, 759.8 mmHg, 29.91 inHg, 1.000 atm
Relative humidity:76.3 %
METAR:EGPC 011950Z AUTO 30005KT 9999 NCD 11/07 Q1013

Snelkoppelingen

Actuele weersinformatie van de hele wereld. Voeg locaties toe met het plus (+) symbool. Deze snelkoppelingen kunnen worden toegevoegd aan Google.

Lid van de Technetium groep

website free tracking
StatCounter NetStat W3C Validator

07-03-2021 03:42:46
astro.technetium.be money.technetium.be phote.technetium.be tafeltennistafel.technetium.be www.ligfiets.net